createdAt,value
2022-07-31T00:02:07.174Z,100289.47
2022-07-31T00:04:37.993Z,100285.28
2022-07-31T00:07:07.223Z,100282.22
2022-07-31T00:09:52.353Z,100277.47
2022-07-31T00:12:08.981Z,100277.74
2022-07-31T00:14:39.403Z,100274.67
2022-07-31T00:17:08.601Z,100273.28
2022-07-31T00:19:37.908Z,100271.88
2022-07-31T00:22:08.534Z,100269.09
2022-07-31T00:24:38.486Z,100262.67
2022-07-31T00:27:10.187Z,100254.85
2022-07-31T00:29:39.454Z,100257.36
2022-07-31T00:32:08.992Z,100255.97
2022-07-31T00:34:39.204Z,100254.85
2022-07-31T00:37:09.988Z,100254.02
2022-07-31T00:39:39.888Z,100257.09
2022-07-31T00:42:22.426Z,100257.09
2022-07-31T00:44:51.998Z,100254.84
2022-07-31T00:47:23.845Z,100252.62
2022-07-31T00:49:52.697Z,100245.08
2022-07-31T00:52:22.069Z,100249.51
2022-07-31T00:54:52.081Z,100253.13
2022-07-31T00:57:21.398Z,100242.25
2022-07-31T00:59:51.390Z,100238.58
2022-07-31T01:02:20.499Z,100249.74
2022-07-31T01:04:50.266Z,100242.77
2022-07-31T01:07:20.768Z,100240.81
2022-07-31T01:09:49.923Z,100247.78
2022-07-31T01:12:28.011Z,100251.14
2022-07-31T01:15:00.133Z,100239.14
2022-07-31T01:17:31.124Z,100242.77
2022-07-31T01:20:01.820Z,100239.41
2022-07-31T01:22:59.408Z,100243.04
2022-07-31T01:26:08.595Z,100240.25
2022-07-31T01:28:51.089Z,100238.84
2022-07-31T01:31:29.214Z,100246.66
2022-07-31T01:34:08.334Z,100241.08
2022-07-31T01:36:42.307Z,100230.20
2022-07-31T01:39:12.312Z,100231.86
2022-07-31T01:41:43.294Z,100235.48
2022-07-31T01:44:13.949Z,100233.25
2022-07-31T01:46:44.943Z,100236.31
2022-07-31T01:49:15.157Z,100233.80
2022-07-31T01:51:49.509Z,100223.20
2022-07-31T01:54:18.956Z,100217.89
2022-07-31T01:56:50.192Z,100222.36
2022-07-31T01:59:22.929Z,100224.59
2022-07-31T02:02:09.965Z,100226.25
2022-07-31T02:04:40.328Z,100230.42
2022-07-31T02:07:11.891Z,100229.31
2022-07-31T02:09:52.421Z,100227.08
2022-07-31T02:12:16.423Z,100225.12
2022-07-31T02:14:48.201Z,100228.47
2022-07-31T02:17:22.571Z,100228.16
2022-07-31T02:20:00.225Z,100233.96
2022-07-31T02:22:29.592Z,100238.13
2022-07-31T02:24:59.721Z,100235.06
2022-07-31T02:27:54.040Z,100233.67
2022-07-31T02:30:02.902Z,100231.72
2022-07-31T02:32:33.102Z,100241.20
2022-07-31T02:35:02.923Z,100236.73
2022-07-31T02:37:32.048Z,100235.62
2022-07-31T02:40:01.248Z,100236.16
2022-07-31T02:42:30.889Z,100239.50
2022-07-31T02:45:00.368Z,100242.00
2022-07-31T02:47:29.564Z,100244.51
2022-07-31T02:50:00.189Z,100244.50
2022-07-31T02:52:31.199Z,100247.55
2022-07-31T02:55:01.466Z,100253.69
2022-07-31T02:57:31.180Z,100247.55
2022-07-31T03:00:01.028Z,100253.13
2022-07-31T03:02:36.883Z,100247.55
2022-07-31T03:05:03.619Z,100250.90
2022-07-31T03:07:33.082Z,100252.30
2022-07-31T03:10:03.543Z,100248.10
2022-07-31T03:12:43.307Z,100250.56
2022-07-31T03:15:16.200Z,100243.58
2022-07-31T03:17:45.834Z,100247.18
2022-07-31T03:20:18.091Z,100244.10
2022-07-31T03:22:47.159Z,100255.80
2022-07-31T03:25:20.185Z,100255.52
2022-07-31T03:27:55.885Z,100263.05
2022-07-31T03:30:21.423Z,100263.63
2022-07-31T03:32:56.141Z,100255.84
2022-07-31T03:35:27.311Z,100256.41
2022-07-31T03:37:56.200Z,100256.73
2022-07-31T03:40:26.271Z,100255.06
2022-07-31T03:42:55.263Z,100251.17
2022-07-31T03:45:25.300Z,100246.17
2022-07-31T03:47:55.039Z,100249.53
2022-07-31T03:50:24.110Z,100249.27
2022-07-31T03:52:53.590Z,100243.70
2022-07-31T03:55:23.303Z,100237.59
2022-07-31T03:57:52.750Z,100238.47
2022-07-31T04:00:25.307Z,100235.69
2022-07-31T04:02:58.361Z,100247.42
2022-07-31T04:05:40.094Z,100239.34
2022-07-31T04:08:10.744Z,100239.63
2022-07-31T04:10:39.770Z,100239.64
2022-07-31T04:13:12.278Z,100238.27
2022-07-31T04:15:43.455Z,100243.30
2022-07-31T04:18:13.115Z,100239.11
2022-07-31T04:20:44.277Z,100235.22
2022-07-31T04:23:14.101Z,100233.27
2022-07-31T04:25:57.902Z,100238.56
2022-07-31T04:28:39.145Z,100234.39
2022-07-31T04:31:08.139Z,100241.92
2022-07-31T04:33:48.284Z,100242.77
2022-07-31T04:36:16.951Z,100237.47
2022-07-31T04:38:44.520Z,100237.22
2022-07-31T04:41:13.769Z,100237.55
2022-07-31T04:43:43.059Z,100243.13
2022-07-31T04:46:17.607Z,100241.17
2022-07-31T04:48:43.836Z,100244.52
2022-07-31T04:51:19.592Z,100241.45
2022-07-31T04:53:50.290Z,100246.75
2022-07-31T04:56:33.500Z,100241.45
2022-07-31T04:59:06.030Z,100243.67
2022-07-31T05:01:37.036Z,100247.02
2022-07-31T05:04:07.522Z,100244.22
2022-07-31T05:06:40.802Z,100245.09
2022-07-31T05:09:19.021Z,100237.25
2022-07-31T05:11:48.615Z,100235.55
2022-07-31T05:14:20.937Z,100237.48
2022-07-31T05:16:50.537Z,100233.83
2022-07-31T05:19:19.855Z,100233.80
2022-07-31T05:22:05.290Z,100230.99
2022-07-31T05:24:54.481Z,100223.67
2022-07-31T05:27:25.161Z,100223.66
2022-07-31T05:29:57.200Z,100219.72
2022-07-31T05:32:27.115Z,100226.40
2022-07-31T05:34:57.632Z,100225.15
2022-07-31T05:37:27.050Z,100223.02
2022-07-31T05:39:56.904Z,100234.08
2022-07-31T05:42:45.225Z,100234.42
2022-07-31T05:45:16.946Z,100232.83
2022-07-31T05:47:48.587Z,100238.48
2022-07-31T05:50:18.935Z,100243.02
2022-07-31T05:52:50.800Z,100238.08
2022-07-31T05:55:23.038Z,100241.80
2022-07-31T05:58:00.988Z,100234.26
2022-07-31T06:00:30.248Z,100234.94
2022-07-31T06:03:02.381Z,100240.41
2022-07-31T06:05:51.837Z,100240.06
2022-07-31T06:08:22.555Z,100234.40
2022-07-31T06:10:51.863Z,100235.64
2022-07-31T06:13:28.005Z,100242.15
2022-07-31T06:15:57.635Z,100236.27
2022-07-31T06:18:27.250Z,100238.89
2022-07-31T06:20:58.268Z,100231.42
2022-07-31T06:23:29.778Z,100232.15
2022-07-31T06:26:00.171Z,100228.27
2022-07-31T06:28:48.046Z,100224.42
2022-07-31T06:31:03.964Z,100226.44
2022-07-31T06:33:37.606Z,100226.86
2022-07-31T06:36:05.462Z,100224.16
2022-07-31T06:38:37.158Z,100222.18
2022-07-31T06:41:38.832Z,100214.41
2022-07-31T06:44:26.319Z,100218.82
2022-07-31T06:47:16.133Z,100210.22
2022-07-31T06:50:07.429Z,100199.75
2022-07-31T06:52:41.631Z,100195.26
2022-07-31T06:55:11.845Z,100197.47
2022-07-31T06:57:42.020Z,100201.08
2022-07-31T07:00:19.766Z,100200.28
2022-07-31T07:02:45.090Z,100196.13
2022-07-31T07:05:16.125Z,100188.22
2022-07-31T07:07:48.764Z,100189.16
2022-07-31T07:10:17.739Z,100184.18
2022-07-31T07:13:04.459Z,100190.61
2022-07-31T07:15:35.354Z,100187.89
2022-07-31T07:18:05.041Z,100192.19
2022-07-31T07:20:39.778Z,100183.86
2022-07-31T07:23:08.733Z,100186.88
2022-07-31T07:25:43.334Z,100178.64
2022-07-31T07:28:30.549Z,100176.30
2022-07-31T07:30:47.657Z,100171.77
2022-07-31T07:33:41.486Z,100170.77
2022-07-31T07:35:48.824Z,100181.22
2022-07-31T07:38:19.259Z,100183.50
2022-07-31T07:40:49.742Z,100171.08
2022-07-31T07:43:19.813Z,100184.48
2022-07-31T07:45:52.016Z,100178.03
2022-07-31T07:48:21.315Z,100174.47
2022-07-31T07:51:09.799Z,100170.94
2022-07-31T07:53:46.918Z,100172.45
2022-07-31T07:56:16.332Z,100174.36
2022-07-31T07:58:49.092Z,100174.12
2022-07-31T08:01:23.773Z,100174.98
2022-07-31T08:03:54.762Z,100164.26
2022-07-31T08:06:24.222Z,100167.14
2022-07-31T08:08:55.030Z,100162.41
2022-07-31T08:11:42.256Z,100162.92
2022-07-31T08:14:15.202Z,100157.56
2022-07-31T08:17:02.982Z,100166.41
2022-07-31T08:19:32.910Z,100165.23
2022-07-31T08:22:03.951Z,100162.41
2022-07-31T08:24:33.782Z,100161.83
2022-07-31T08:27:21.746Z,100153.56
2022-07-31T08:29:56.890Z,100160.89
2022-07-31T08:32:26.751Z,100154.50
2022-07-31T08:35:08.129Z,100158.06
2022-07-31T08:37:52.119Z,100150.16
2022-07-31T08:40:10.690Z,100157.08
2022-07-31T08:42:40.140Z,100148.58
2022-07-31T08:45:10.131Z,100143.98
2022-07-31T08:47:46.938Z,100143.02
2022-07-31T08:50:18.455Z,100136.05
2022-07-31T08:52:49.555Z,100136.09
2022-07-31T08:55:54.798Z,100129.36
2022-07-31T08:57:51.543Z,100127.22
2022-07-31T09:00:22.511Z,100128.17
2022-07-31T09:02:54.320Z,100125.22
2022-07-31T09:05:28.009Z,100122.02
2022-07-31T09:08:00.002Z,100119.42
2022-07-31T09:10:30.536Z,100114.09
2022-07-31T09:13:03.643Z,100107.95
2022-07-31T09:15:34.196Z,100111.97
2022-07-31T09:18:04.916Z,100102.98
2022-07-31T09:20:35.723Z,100097.97
2022-07-31T09:23:11.793Z,100100.86
2022-07-31T09:25:59.444Z,100101.67
2022-07-31T09:28:46.139Z,100100.67
2022-07-31T09:31:16.268Z,100103.12
2022-07-31T09:33:58.966Z,100102.73
2022-07-31T09:36:43.122Z,100098.43
2022-07-31T09:39:30.752Z,100105.16
2022-07-31T09:42:22.110Z,100094.22
2022-07-31T09:44:56.644Z,100099.25
2022-07-31T09:47:31.881Z,100103.08
2022-07-31T09:50:04.587Z,100090.28
2022-07-31T09:52:34.082Z,100087.85
2022-07-31T09:55:16.279Z,100092.15
2022-07-31T09:57:58.530Z,100088.68
2022-07-31T10:00:30.179Z,100083.12
2022-07-31T10:02:59.701Z,100080.30
2022-07-31T10:05:31.411Z,100085.95
2022-07-31T10:08:04.452Z,100081.46
2022-07-31T10:10:50.494Z,100076.53
2022-07-31T10:13:27.967Z,100074.63
2022-07-31T10:15:59.426Z,100071.91
2022-07-31T10:18:49.749Z,100069.02
2022-07-31T10:21:24.691Z,100063.26
2022-07-31T10:23:55.674Z,100059.84
2022-07-31T10:26:44.566Z,100058.48
2022-07-31T10:28:57.958Z,100058.39
2022-07-31T10:31:27.558Z,100052.39
2022-07-31T10:33:57.423Z,100059.36
2022-07-31T10:36:46.122Z,100052.05
2022-07-31T10:39:40.623Z,100049.47
2022-07-31T10:42:55.132Z,100056.23
2022-07-31T10:45:24.472Z,100047.52
2022-07-31T10:48:00.333Z,100050.75
2022-07-31T10:50:48.177Z,100045.05
2022-07-31T10:53:19.456Z,100044.41
2022-07-31T10:56:08.865Z,100044.31
2022-07-31T10:58:58.448Z,100040.89
2022-07-31T11:01:29.901Z,100033.98
2022-07-31T11:04:11.070Z,100033.05
2022-07-31T11:06:49.498Z,100025.98
2022-07-31T11:09:27.493Z,100030.76
2022-07-31T11:11:58.239Z,100030.52
2022-07-31T11:14:41.746Z,100021.69
2022-07-31T11:17:17.324Z,100022.42
2022-07-31T11:19:52.851Z,100020.33
2022-07-31T11:22:31.263Z,100012.04
2022-07-31T11:24:56.168Z,100013.55
2022-07-31T11:27:32.373Z,100010.04
2022-07-31T11:30:10.692Z,100009.11
2022-07-31T11:32:37.203Z,100005.25
2022-07-31T11:35:08.133Z,100005.14
2022-07-31T11:37:57.081Z,100005.67
2022-07-31T11:40:10.738Z,100002.84
2022-07-31T11:42:48.253Z,100002.59
2022-07-31T11:45:17.168Z,100002.78
2022-07-31T11:48:10.896Z,99999.74
2022-07-31T11:50:19.087Z,99999.74
2022-07-31T11:52:48.777Z,99993.17
2022-07-31T11:55:19.056Z,99986.94
2022-07-31T11:57:52.305Z,99997.31
2022-07-31T12:00:26.259Z,99995.23
2022-07-31T12:02:52.170Z,99990.31
2022-07-31T12:05:38.140Z,99984.41
2022-07-31T12:07:53.768Z,99986.41
2022-07-31T12:10:24.108Z,99989.39
2022-07-31T12:12:53.823Z,99985.73
2022-07-31T12:15:23.448Z,99974.52
2022-07-31T12:18:01.073Z,99974.52
2022-07-31T12:20:35.861Z,99980.48
2022-07-31T12:23:04.853Z,99976.05
2022-07-31T12:25:42.735Z,99969.91
2022-07-31T12:28:16.983Z,99969.91
2022-07-31T12:30:46.804Z,99967.95
2022-07-31T12:33:17.824Z,99964.63
2022-07-31T12:35:55.852Z,99966.29
2022-07-31T12:38:48.344Z,99953.13
2022-07-31T12:41:04.928Z,99953.13
2022-07-31T12:43:36.367Z,99960.00
2022-07-31T12:46:05.429Z,99959.32
2022-07-31T12:48:41.058Z,99949.92
2022-07-31T12:51:07.690Z,99950.55
2022-07-31T12:53:37.697Z,99950.55
2022-07-31T12:56:12.171Z,99953.97
2022-07-31T12:58:42.131Z,99951.97
2022-07-31T13:01:12.481Z,99942.52
2022-07-31T13:04:03.481Z,99941.54
2022-07-31T13:06:33.198Z,99935.24
2022-07-31T13:09:02.113Z,99951.43
2022-07-31T13:11:46.023Z,99942.41
2022-07-31T13:14:04.517Z,99929.25
2022-07-31T13:16:35.299Z,99929.25
2022-07-31T13:19:07.416Z,99931.83
2022-07-31T13:21:47.925Z,99929.41
2022-07-31T13:24:08.958Z,99929.41
2022-07-31T13:26:37.850Z,99926.92
2022-07-31T13:29:07.414Z,99924.34
2022-07-31T13:31:37.519Z,99926.42
2022-07-31T13:34:07.518Z,99921.95
2022-07-31T13:36:39.450Z,99921.12
2022-07-31T13:39:09.120Z,99917.13
2022-07-31T13:41:39.031Z,99920.29
2022-07-31T13:44:08.323Z,99920.94
2022-07-31T13:46:40.295Z,99915.72
2022-07-31T13:49:10.597Z,99913.72
2022-07-31T13:51:40.340Z,99913.38
2022-07-31T13:54:09.639Z,99913.38
2022-07-31T13:56:42.674Z,99911.56
2022-07-31T13:59:13.288Z,99913.86
2022-07-31T14:02:04.100Z,99913.18
2022-07-31T14:04:18.265Z,99918.25
2022-07-31T14:06:47.338Z,99911.19
2022-07-31T14:09:16.975Z,99909.53
2022-07-31T14:11:47.119Z,99906.45
2022-07-31T14:14:22.923Z,99901.73
2022-07-31T14:16:48.806Z,99898.81
2022-07-31T14:19:18.139Z,99903.69
2022-07-31T14:21:56.057Z,99903.69
2022-07-31T14:24:18.881Z,99895.40
2022-07-31T14:26:47.614Z,99888.53
2022-07-31T14:29:16.473Z,99888.72
2022-07-31T14:31:45.935Z,99888.72
2022-07-31T14:34:16.951Z,99886.89
2022-07-31T14:36:46.856Z,99886.89
2022-07-31T14:39:16.750Z,99893.21
2022-07-31T14:41:46.727Z,99893.21
2022-07-31T14:44:21.142Z,99893.30
2022-07-31T14:46:50.216Z,99893.30
2022-07-31T14:49:20.950Z,99890.88
2022-07-31T14:51:51.175Z,99894.63
2022-07-31T14:54:21.451Z,99888.92
2022-07-31T14:57:01.125Z,99888.92
2022-07-31T14:59:24.595Z,99885.42
2022-07-31T15:01:53.764Z,99886.40
2022-07-31T15:04:23.974Z,99885.82
2022-07-31T15:07:07.851Z,99886.34
2022-07-31T15:09:27.077Z,99882.39
2022-07-31T15:11:59.971Z,99883.41
2022-07-31T15:14:27.915Z,99881.25
2022-07-31T15:16:58.187Z,99881.69
2022-07-31T15:19:27.974Z,99884.84
2022-07-31T15:22:16.655Z,99886.20
2022-07-31T15:24:29.601Z,99886.20
2022-07-31T15:26:58.765Z,99881.13
2022-07-31T15:30:04.709Z,99882.54
2022-07-31T15:32:00.176Z,99877.08
2022-07-31T15:34:29.212Z,99882.62
2022-07-31T15:36:58.872Z,99881.82
2022-07-31T15:39:28.943Z,99878.16
2022-07-31T15:41:59.584Z,99884.80
2022-07-31T15:44:28.850Z,99878.75
2022-07-31T15:46:58.726Z,99877.44
2022-07-31T15:49:28.878Z,99877.44
2022-07-31T15:51:59.695Z,99876.45
2022-07-31T15:54:29.757Z,99887.73
2022-07-31T15:57:00.035Z,99895.03
2022-07-31T15:59:30.631Z,99889.30
2022-07-31T16:02:00.339Z,99897.19
2022-07-31T16:04:31.705Z,99898.69
2022-07-31T16:08:29.942Z,99900.18
2022-07-31T16:09:34.305Z,99891.55
2022-07-31T16:12:05.800Z,99896.11
2022-07-31T16:14:35.316Z,99896.70
2022-07-31T16:17:05.121Z,99893.95
2022-07-31T16:19:35.395Z,99895.78
2022-07-31T16:22:05.378Z,99898.73
2022-07-31T16:24:35.629Z,99895.50
2022-07-31T16:27:06.000Z,99897.66
2022-07-31T16:29:59.776Z,99900.39
2022-07-31T16:32:08.957Z,99905.78
2022-07-31T16:34:39.647Z,99910.64
2022-07-31T16:37:09.876Z,99903.67
2022-07-31T16:39:40.267Z,99902.09
2022-07-31T16:42:09.301Z,99904.16
2022-07-31T16:44:39.734Z,99907.38
2022-07-31T16:47:10.675Z,99904.14
2022-07-31T16:49:42.459Z,99912.67
2022-07-31T16:52:13.927Z,99907.20
2022-07-31T16:54:44.684Z,99905.69
2022-07-31T16:57:15.125Z,99912.60
2022-07-31T16:59:57.195Z,99907.70
2022-07-31T17:02:16.662Z,99911.83
2022-07-31T17:04:47.743Z,99908.07
2022-07-31T17:07:17.658Z,99913.85
2022-07-31T17:09:48.972Z,99915.45
2022-07-31T17:12:20.385Z,99915.02
2022-07-31T17:14:51.106Z,99915.16
2022-07-31T17:17:21.545Z,99914.98
2022-07-31T17:19:53.352Z,99912.30
2022-07-31T17:22:24.632Z,99924.28
2022-07-31T17:24:54.194Z,99925.83
2022-07-31T17:27:24.470Z,99923.38
2022-07-31T17:29:55.279Z,99927.09
2022-07-31T17:32:24.821Z,99924.34
2022-07-31T17:34:54.699Z,99925.88
2022-07-31T17:37:24.589Z,99926.91
2022-07-31T17:39:59.763Z,99931.59
2022-07-31T17:42:29.705Z,99920.19
2022-07-31T17:45:02.126Z,99921.34
2022-07-31T17:47:32.144Z,99929.58
2022-07-31T17:50:01.310Z,99925.17
2022-07-31T17:52:30.485Z,99929.78
2022-07-31T17:55:01.482Z,99925.94
2022-07-31T17:57:32.620Z,99929.14
2022-07-31T18:00:03.118Z,99928.11
2022-07-31T18:02:34.990Z,99930.16
2022-07-31T18:05:04.872Z,99931.94
2022-07-31T18:07:35.650Z,99934.53
2022-07-31T18:10:08.556Z,99931.27
2022-07-31T18:12:57.797Z,99940.08
2022-07-31T18:15:14.184Z,99933.75
2022-07-31T18:17:45.635Z,99940.06
2022-07-31T18:20:14.749Z,99941.06
2022-07-31T18:22:49.463Z,99948.95
2022-07-31T18:25:16.141Z,99939.74
2022-07-31T18:27:45.983Z,99938.97
2022-07-31T18:30:15.206Z,99943.81
2022-07-31T18:32:46.784Z,99943.04
2022-07-31T18:35:16.571Z,99934.41
2022-07-31T18:37:46.629Z,99941.49
2022-07-31T18:40:16.271Z,99938.73
2022-07-31T18:42:46.124Z,99940.20
2022-07-31T18:45:16.242Z,99937.50
2022-07-31T18:47:46.233Z,99934.75
2022-07-31T18:51:00.668Z,99936.85
2022-07-31T18:52:46.602Z,99942.27
2022-07-31T18:55:16.250Z,99939.83
2022-07-31T18:57:46.489Z,99939.36
2022-07-31T19:00:16.478Z,99939.67
2022-07-31T19:02:46.477Z,99941.18
2022-07-31T19:05:21.370Z,99940.71
2022-07-31T19:07:50.347Z,99950.30
2022-07-31T19:10:29.292Z,99943.02
2022-07-31T19:12:50.882Z,99948.37
2022-07-31T19:15:20.045Z,99943.38
2022-07-31T19:17:49.610Z,99939.79
2022-07-31T19:20:56.574Z,99938.17
2022-07-31T19:22:53.344Z,99941.34
2022-07-31T19:25:25.356Z,99938.58
2022-07-31T19:27:55.097Z,99939.20
2022-07-31T19:30:25.959Z,99932.23
2022-07-31T19:32:57.681Z,99930.88
2022-07-31T19:35:27.296Z,99929.48
2022-07-31T19:38:01.784Z,99926.72
2022-07-31T19:40:31.639Z,99926.25
2022-07-31T19:43:02.843Z,99929.91
2022-07-31T19:45:32.275Z,99936.39
2022-07-31T19:48:02.340Z,99928.55
2022-07-31T19:50:32.197Z,99931.05
2022-07-31T19:53:02.488Z,99939.20
2022-07-31T19:55:36.210Z,99930.00
2022-07-31T19:58:05.475Z,99937.89
2022-07-31T20:00:35.021Z,99938.50
2022-07-31T20:03:04.918Z,99939.38
2022-07-31T20:05:36.258Z,99936.05
2022-07-31T20:08:05.608Z,99940.31
2022-07-31T20:10:35.470Z,99934.75
2022-07-31T20:13:04.511Z,99933.95
2022-07-31T20:15:52.345Z,99935.09
2022-07-31T20:18:05.845Z,99937.38
2022-07-31T20:20:35.756Z,99924.81
2022-07-31T20:23:04.683Z,99926.52
2022-07-31T20:25:34.582Z,99926.48
2022-07-31T20:28:04.388Z,99925.38
2022-07-31T20:30:34.195Z,99926.27
2022-07-31T20:33:04.233Z,99925.16
2022-07-31T20:35:49.193Z,99919.64
2022-07-31T20:38:07.128Z,99915.22
2022-07-31T20:40:38.113Z,99916.97
2022-07-31T20:43:07.021Z,99915.66
2022-07-31T20:45:41.565Z,99912.33
2022-07-31T20:48:08.758Z,99910.40
2022-07-31T20:50:39.275Z,99907.94
2022-07-31T20:53:08.991Z,99910.27
2022-07-31T20:55:38.887Z,99902.77
2022-07-31T20:58:09.004Z,99901.45
2022-07-31T21:00:40.277Z,99899.80
2022-07-31T21:03:09.814Z,99899.27
2022-07-31T21:05:40.893Z,99901.01
2022-07-31T21:08:11.229Z,99902.14
2022-07-31T21:10:41.160Z,99903.06
2022-07-31T21:13:11.842Z,99899.17
2022-07-31T21:15:45.105Z,99914.61
2022-07-31T21:18:15.071Z,99911.05
2022-07-31T21:20:52.143Z,99908.30
2022-07-31T21:23:19.185Z,99904.16
2022-07-31T21:25:49.113Z,99907.88
2022-07-31T21:28:19.103Z,99901.81
2022-07-31T21:30:49.330Z,99894.39
2022-07-31T21:33:19.419Z,99899.45
2022-07-31T21:35:49.507Z,99903.96
2022-07-31T21:38:19.497Z,99911.03
2022-07-31T21:40:49.431Z,99903.53
2022-07-31T21:43:22.524Z,99910.63
2022-07-31T21:45:57.942Z,99896.09
2022-07-31T21:48:24.651Z,99898.12
2022-07-31T21:50:54.802Z,99895.92
2022-07-31T21:53:25.136Z,99896.48
2022-07-31T21:55:55.823Z,99894.29
2022-07-31T21:58:24.855Z,99896.55
2022-07-31T22:00:54.008Z,99893.55
2022-07-31T22:03:25.067Z,99894.44
2022-07-31T22:06:13.650Z,99895.60
2022-07-31T22:08:43.099Z,99888.38
2022-07-31T22:11:12.776Z,99886.73
2022-07-31T22:13:42.424Z,99885.09
2022-07-31T22:16:11.750Z,99881.20
2022-07-31T22:18:42.568Z,99883.75
2022-07-31T22:21:12.874Z,99877.35
2022-07-31T22:23:42.211Z,99875.73
2022-07-31T22:26:12.081Z,99870.47
2022-07-31T22:28:42.495Z,99880.02
2022-07-31T22:31:12.812Z,99873.58
2022-07-31T22:33:42.681Z,99874.17
2022-07-31T22:36:13.185Z,99870.84
2022-07-31T22:38:44.423Z,99868.95
2022-07-31T22:41:14.679Z,99871.53
2022-07-31T22:44:09.992Z,99865.49
2022-07-31T22:46:17.178Z,99868.62
2022-07-31T22:48:47.008Z,99869.50
2022-07-31T22:51:16.095Z,99868.16
2022-07-31T22:53:49.010Z,99868.19
2022-07-31T22:56:18.065Z,99871.30
2022-07-31T22:58:47.598Z,99867.41
2022-07-31T23:01:17.573Z,99872.69
2022-07-31T23:03:47.328Z,99870.17
2022-07-31T23:06:31.381Z,99872.17
2022-07-31T23:08:54.468Z,99869.45
2022-07-31T23:11:25.256Z,99871.46
2022-07-31T23:13:54.652Z,99863.13
2022-07-31T23:16:24.098Z,99861.74
2022-07-31T23:18:53.465Z,99866.77
2022-07-31T23:21:24.128Z,99860.63
2022-07-31T23:23:53.108Z,99860.65
2022-07-31T23:26:24.646Z,99859.03
2022-07-31T23:28:54.566Z,99862.14
2022-07-31T23:31:24.290Z,99861.59
2022-07-31T23:33:53.045Z,99857.73
2022-07-31T23:36:22.466Z,99856.61
2022-07-31T23:38:52.516Z,99857.47
2022-07-31T23:41:40.625Z,99852.74
2022-07-31T23:44:10.551Z,99848.27
2022-07-31T23:46:40.590Z,99849.11
2022-07-31T23:49:10.511Z,99840.17
2022-07-31T23:51:41.569Z,99843.52
2022-07-31T23:54:10.591Z,99845.75
2022-07-31T23:56:40.168Z,99846.59
2022-07-31T23:59:11.859Z,99847.98
